createdAt,value
2016-11-30T00:00:46.474Z,0.00
2016-11-30T00:01:47.143Z,0.00
2016-11-30T00:02:47.503Z,0.00
2016-11-30T00:03:48.168Z,0.00
2016-11-30T00:04:48.683Z,0.00
2016-11-30T00:05:49.191Z,0.00
2016-11-30T00:06:49.580Z,0.00
2016-11-30T00:07:50.087Z,0.00
2016-11-30T00:08:50.588Z,0.00
2016-11-30T00:09:51.102Z,0.00
2016-11-30T00:10:51.620Z,0.00
2016-11-30T00:11:52.154Z,0.00
2016-11-30T00:12:52.694Z,0.00
2016-11-30T00:13:53.358Z,0.00
2016-11-30T00:14:53.831Z,0.00
2016-11-30T00:15:54.193Z,0.00
2016-11-30T00:16:54.715Z,0.00
2016-11-30T00:17:55.233Z,0.00
2016-11-30T00:18:55.883Z,0.00
2016-11-30T00:19:56.300Z,0.00
2016-11-30T00:20:56.912Z,0.00
2016-11-30T00:21:57.427Z,0.00
2016-11-30T00:22:57.789Z,0.00
2016-11-30T00:23:58.306Z,0.00
2016-11-30T00:24:58.969Z,0.00
2016-11-30T00:25:59.332Z,0.00
2016-11-30T00:26:59.990Z,0.00
2016-11-30T00:28:00.356Z,0.00
2016-11-30T00:29:00.874Z,0.00
2016-11-30T00:30:01.388Z,0.00
2016-11-30T00:31:01.928Z,0.00
2016-11-30T00:32:02.565Z,0.00
2016-11-30T00:33:03.076Z,0.00
2016-11-30T00:34:03.590Z,0.00
2016-11-30T00:35:04.102Z,0.00
2016-11-30T00:36:04.471Z,0.00
2016-11-30T00:37:05.006Z,0.00
2016-11-30T00:38:05.495Z,0.00
2016-11-30T00:39:06.031Z,0.00
2016-11-30T00:40:06.533Z,0.00
2016-11-30T00:41:07.057Z,0.00
2016-11-30T00:42:07.706Z,0.00
2016-11-30T00:43:08.075Z,0.00
2016-11-30T00:44:08.731Z,0.00
2016-11-30T00:45:09.096Z,0.00
2016-11-30T00:46:09.762Z,0.00
2016-11-30T00:47:10.144Z,0.00
2016-11-30T00:48:10.795Z,0.00
2016-11-30T00:49:11.178Z,0.00
2016-11-30T00:50:11.676Z,0.00
2016-11-30T00:51:12.229Z,0.00
2016-11-30T00:52:12.716Z,0.00
2016-11-30T00:53:13.228Z,0.00
2016-11-30T00:54:13.898Z,0.00
2016-11-30T00:55:14.256Z,0.00
2016-11-30T00:56:14.775Z,0.00
2016-11-30T00:57:15.326Z,0.00
2016-11-30T00:58:15.806Z,0.00
2016-11-30T00:59:16.330Z,0.00
2016-11-30T01:00:16.833Z,0.00
2016-11-30T01:01:17.373Z,0.00
2016-11-30T01:02:17.858Z,0.00
2016-11-30T01:03:18.373Z,0.00
2016-11-30T01:04:18.885Z,0.00
2016-11-30T01:05:19.548Z,0.00
2016-11-30T01:06:20.068Z,0.00
2016-11-30T01:07:20.458Z,0.00
2016-11-30T01:08:20.948Z,0.00
2016-11-30T01:09:21.603Z,0.00
2016-11-30T01:10:22.124Z,0.00
2016-11-30T01:11:22.492Z,0.00
2016-11-30T01:12:23.301Z,0.00
2016-11-30T01:13:23.536Z,0.00
2016-11-30T01:14:24.178Z,0.00
2016-11-30T01:15:24.589Z,0.00
2016-11-30T01:16:25.070Z,0.00
2016-11-30T01:17:25.572Z,0.00
2016-11-30T01:18:26.102Z,0.00
2016-11-30T01:19:26.622Z,0.00
2016-11-30T01:20:27.129Z,0.00
2016-11-30T01:21:27.626Z,0.00
2016-11-30T01:22:28.155Z,0.00
2016-11-30T01:23:28.663Z,0.00
2016-11-30T01:24:29.316Z,0.00
2016-11-30T01:25:29.718Z,0.00
2016-11-30T01:26:30.204Z,0.00
2016-11-30T01:27:30.855Z,0.00
2016-11-30T01:28:31.270Z,0.00
2016-11-30T01:29:31.765Z,0.00
2016-11-30T01:30:32.277Z,0.00
2016-11-30T01:31:32.792Z,0.00
2016-11-30T01:32:33.295Z,0.00
2016-11-30T01:33:33.950Z,0.00
2016-11-30T01:34:34.329Z,0.00
2016-11-30T01:35:34.832Z,0.00
2016-11-30T01:36:35.344Z,0.00
2016-11-30T01:37:36.001Z,0.00
2016-11-30T01:38:36.394Z,0.00
2016-11-30T01:39:36.885Z,0.00
2016-11-30T01:40:37.414Z,0.00
2016-11-30T01:41:37.932Z,0.00
2016-11-30T01:42:38.578Z,0.00
2016-11-30T01:43:38.944Z,0.00
2016-11-30T01:44:39.607Z,0.00
2016-11-30T01:45:39.966Z,0.00
2016-11-30T01:46:40.630Z,0.00
2016-11-30T01:47:40.994Z,0.00
2016-11-30T01:48:41.519Z,0.00
2016-11-30T01:49:42.025Z,0.00
2016-11-30T01:50:42.686Z,0.00
2016-11-30T01:51:43.050Z,0.00
2016-11-30T01:52:43.880Z,0.00
2016-11-30T01:53:44.378Z,0.00
2016-11-30T01:54:44.590Z,0.00
2016-11-30T01:55:45.117Z,0.00
2016-11-30T01:56:45.771Z,0.00
2016-11-30T01:57:46.134Z,0.00
2016-11-30T01:58:46.796Z,0.00
2016-11-30T01:59:47.187Z,0.00
2016-11-30T02:00:47.692Z,0.00
2016-11-30T02:01:48.192Z,0.00
2016-11-30T02:02:48.722Z,0.00
2016-11-30T02:03:49.363Z,0.00
2016-11-30T02:04:49.733Z,0.00
2016-11-30T02:05:51.743Z,0.00
2016-11-30T02:06:50.786Z,0.00
2016-11-30T02:07:51.310Z,0.00
2016-11-30T02:08:51.786Z,0.00
2016-11-30T02:09:52.323Z,0.00
2016-11-30T02:10:52.853Z,0.00
2016-11-30T02:11:53.338Z,0.00
2016-11-30T02:12:53.856Z,0.00
2016-11-30T02:13:54.369Z,0.00
2016-11-30T02:14:55.030Z,0.00
2016-11-30T02:15:55.539Z,0.00
2016-11-30T02:16:55.914Z,0.00
2016-11-30T02:17:56.434Z,0.00
2016-11-30T02:18:56.937Z,0.00
2016-11-30T02:19:57.603Z,0.00
2016-11-30T02:20:57.975Z,0.00
2016-11-30T02:21:58.482Z,0.00
2016-11-30T02:22:59.016Z,0.00
2016-11-30T02:23:59.510Z,0.00
2016-11-30T02:25:00.170Z,0.00
2016-11-30T02:26:00.554Z,0.00
2016-11-30T02:27:01.054Z,0.00
2016-11-30T02:28:01.568Z,0.00
2016-11-30T02:29:02.076Z,0.00
2016-11-30T02:30:02.592Z,0.00
2016-11-30T02:31:03.125Z,0.00
2016-11-30T02:32:03.768Z,0.00
2016-11-30T02:33:04.175Z,0.00
2016-11-30T02:34:04.662Z,0.00
2016-11-30T02:35:05.398Z,0.00
2016-11-30T02:36:05.823Z,0.00
2016-11-30T02:37:06.196Z,0.00
2016-11-30T02:38:06.764Z,0.00
2016-11-30T02:39:07.369Z,0.00
2016-11-30T02:40:07.737Z,0.00
2016-11-30T02:41:08.267Z,0.00
2016-11-30T02:42:08.768Z,0.00
2016-11-30T02:43:09.293Z,0.00
2016-11-30T02:44:09.943Z,0.00
2016-11-30T02:45:10.467Z,0.00
2016-11-30T02:46:10.975Z,0.00
2016-11-30T02:47:11.353Z,0.00
2016-11-30T02:48:12.008Z,0.00
2016-11-30T02:49:12.532Z,0.00
2016-11-30T02:50:12.897Z,0.00
2016-11-30T02:51:13.560Z,0.00
2016-11-30T02:52:13.928Z,0.00
2016-11-30T02:53:14.451Z,0.00
2016-11-30T02:54:14.960Z,0.00
2016-11-30T02:55:15.622Z,0.00
2016-11-30T02:56:16.040Z,0.00
2016-11-30T02:57:16.500Z,0.00
2016-11-30T02:58:17.032Z,0.00
2016-11-30T02:59:17.526Z,0.00
2016-11-30T03:00:18.190Z,0.00
2016-11-30T03:01:18.702Z,0.00
2016-11-30T03:02:19.211Z,0.00
2016-11-30T03:03:19.580Z,0.00
2016-11-30T03:04:20.092Z,0.00
2016-11-30T03:05:20.753Z,0.00
2016-11-30T03:06:21.138Z,0.00
2016-11-30T03:07:21.644Z,0.00
2016-11-30T03:08:22.293Z,0.00
2016-11-30T03:09:22.813Z,0.00
2016-11-30T03:10:23.318Z,0.00
2016-11-30T03:11:23.837Z,0.00
2016-11-30T03:12:24.201Z,0.00
2016-11-30T03:13:24.710Z,0.00
2016-11-30T03:14:25.378Z,0.00
2016-11-30T03:15:25.897Z,0.00
2016-11-30T03:16:26.706Z,0.00
2016-11-30T03:17:26.921Z,0.00
2016-11-30T03:18:27.292Z,0.00
2016-11-30T03:19:27.807Z,0.00
2016-11-30T03:20:28.460Z,0.00
2016-11-30T03:21:28.981Z,0.00
2016-11-30T03:22:29.344Z,0.00
2016-11-30T03:23:29.860Z,0.00
2016-11-30T03:24:30.674Z,0.00
2016-11-30T03:25:30.907Z,0.00
2016-11-30T03:26:31.550Z,0.00
2016-11-30T03:27:31.956Z,0.00
2016-11-30T03:28:32.451Z,0.00
2016-11-30T03:29:32.980Z,0.00
2016-11-30T03:30:33.486Z,0.00
2016-11-30T03:31:33.987Z,0.00
2016-11-30T03:32:34.649Z,0.00
2016-11-30T03:33:35.167Z,0.00
2016-11-30T03:34:35.677Z,0.00
2016-11-30T03:35:36.050Z,0.00
2016-11-30T03:36:36.560Z,0.00
2016-11-30T03:37:37.097Z,0.00
2016-11-30T03:38:37.590Z,0.00
2016-11-30T03:39:38.115Z,0.00
2016-11-30T03:40:38.618Z,0.00
2016-11-30T03:41:39.131Z,0.00
2016-11-30T03:42:39.646Z,0.00
2016-11-30T03:43:40.180Z,0.00
2016-11-30T03:44:40.821Z,0.00
2016-11-30T03:45:41.341Z,0.00
2016-11-30T03:46:41.709Z,0.00
2016-11-30T03:47:42.221Z,0.00
2016-11-30T03:48:42.753Z,0.00
2016-11-30T03:49:43.398Z,0.00
2016-11-30T03:50:43.773Z,0.00
2016-11-30T03:51:44.277Z,0.00
2016-11-30T03:52:44.943Z,0.00
2016-11-30T03:53:45.308Z,0.00
2016-11-30T03:54:45.821Z,0.00
2016-11-30T03:55:46.482Z,0.00
2016-11-30T03:56:46.899Z,0.00
2016-11-30T03:57:47.661Z,0.00
2016-11-30T03:58:48.025Z,0.00
2016-11-30T03:59:48.390Z,0.00
2016-11-30T04:00:48.948Z,0.00
2016-11-30T04:01:49.569Z,0.00
2016-11-30T04:02:50.081Z,0.00
2016-11-30T04:03:50.449Z,0.00
2016-11-30T04:04:51.122Z,0.00
2016-11-30T04:05:51.477Z,0.00
2016-11-30T04:06:51.993Z,0.00
2016-11-30T04:07:52.521Z,0.00
2016-11-30T04:08:53.178Z,0.00
2016-11-30T04:09:53.542Z,0.00
2016-11-30T04:10:54.079Z,0.00
2016-11-30T04:11:54.617Z,0.00
2016-11-30T04:12:55.120Z,0.00
2016-11-30T04:13:55.621Z,0.00
2016-11-30T04:14:56.291Z,0.00
2016-11-30T04:15:56.662Z,0.00
2016-11-30T04:16:57.165Z,0.00
2016-11-30T04:17:57.688Z,0.00
2016-11-30T04:18:58.346Z,0.00
2016-11-30T04:19:58.710Z,0.00
2016-11-30T04:20:59.226Z,0.00
2016-11-30T04:21:59.891Z,0.00
2016-11-30T04:23:00.312Z,0.00
2016-11-30T04:24:00.929Z,0.00
2016-11-30T04:25:01.292Z,0.00
2016-11-30T04:26:01.825Z,0.00
2016-11-30T04:27:02.363Z,0.00
2016-11-30T04:28:02.841Z,0.00
2016-11-30T04:29:03.358Z,0.00
2016-11-30T04:30:04.164Z,0.00
2016-11-30T04:31:04.533Z,0.00
2016-11-30T04:32:04.902Z,0.00
2016-11-30T04:33:05.570Z,0.00
2016-11-30T04:34:05.943Z,0.00
2016-11-30T04:35:06.592Z,0.00
2016-11-30T04:36:07.108Z,0.00
2016-11-30T04:37:07.501Z,0.00
2016-11-30T04:38:08.177Z,0.00
2016-11-30T04:39:08.519Z,0.00
2016-11-30T04:40:09.058Z,0.00
2016-11-30T04:41:09.540Z,0.00
2016-11-30T04:42:10.202Z,0.00
2016-11-30T04:43:10.584Z,0.00
2016-11-30T04:44:11.237Z,0.00
2016-11-30T04:45:11.767Z,0.00
2016-11-30T04:46:12.117Z,0.00
2016-11-30T04:47:12.633Z,0.00
2016-11-30T04:48:13.299Z,0.00
2016-11-30T04:49:13.665Z,0.00
2016-11-30T04:50:14.189Z,0.00
2016-11-30T04:51:14.849Z,0.00
2016-11-30T04:52:15.244Z,0.00
2016-11-30T04:53:15.890Z,0.00
2016-11-30T04:54:16.265Z,0.00
2016-11-30T04:55:16.794Z,0.00
2016-11-30T04:56:17.435Z,0.00
2016-11-30T04:57:17.799Z,0.00
2016-11-30T04:58:18.318Z,0.00
2016-11-30T04:59:18.976Z,0.00
2016-11-30T05:00:19.343Z,0.00
2016-11-30T05:01:20.011Z,0.00
2016-11-30T05:02:20.383Z,0.00
2016-11-30T05:03:20.895Z,0.00
2016-11-30T05:04:21.412Z,0.00
2016-11-30T05:05:22.072Z,0.00
2016-11-30T05:06:22.586Z,0.00
2016-11-30T05:07:22.953Z,0.00
2016-11-30T05:08:23.479Z,0.00
2016-11-30T05:09:24.002Z,0.00
2016-11-30T05:10:24.658Z,0.00
2016-11-30T05:11:25.054Z,0.00
2016-11-30T05:12:25.553Z,0.00
2016-11-30T05:13:26.053Z,0.00
2016-11-30T05:14:26.565Z,0.00
2016-11-30T05:15:27.230Z,0.00
2016-11-30T05:16:27.606Z,0.00
2016-11-30T05:17:28.117Z,0.00
2016-11-30T05:18:28.780Z,0.00
2016-11-30T05:19:29.436Z,0.00
2016-11-30T05:20:29.804Z,0.00
2016-11-30T05:21:30.165Z,0.00
2016-11-30T05:22:30.690Z,0.00
2016-11-30T05:23:31.210Z,0.00
2016-11-30T05:24:31.737Z,0.00
2016-11-30T05:25:32.377Z,0.00
2016-11-30T05:26:32.771Z,0.00
2016-11-30T05:27:33.299Z,0.00
2016-11-30T05:28:33.927Z,0.00
2016-11-30T05:29:34.332Z,0.00
2016-11-30T05:30:34.816Z,0.00
2016-11-30T05:31:35.336Z,0.00
2016-11-30T05:32:35.874Z,0.00
2016-11-30T05:33:36.517Z,0.00
2016-11-30T05:34:36.892Z,0.00
2016-11-30T05:35:37.400Z,0.00
2016-11-30T05:36:38.063Z,0.00
2016-11-30T05:37:38.446Z,0.00
2016-11-30T05:38:38.980Z,0.00
2016-11-30T05:39:39.467Z,0.00
2016-11-30T05:40:39.976Z,0.00
2016-11-30T05:41:40.503Z,0.00
2016-11-30T05:42:41.161Z,0.00
2016-11-30T05:43:41.530Z,0.00
2016-11-30T05:44:42.044Z,0.00
2016-11-30T05:45:42.591Z,0.00
2016-11-30T05:46:43.222Z,0.00
2016-11-30T05:47:43.736Z,0.00
2016-11-30T05:48:44.122Z,0.00
2016-11-30T05:49:44.643Z,0.00
2016-11-30T05:50:45.156Z,0.00
2016-11-30T05:51:45.682Z,0.00
2016-11-30T05:52:46.317Z,0.00
2016-11-30T05:53:46.685Z,0.00
2016-11-30T05:54:47.198Z,0.00
2016-11-30T05:55:47.761Z,0.00
2016-11-30T05:56:48.382Z,0.00
2016-11-30T05:57:48.748Z,0.00
2016-11-30T05:58:49.272Z,0.00
2016-11-30T05:59:49.778Z,0.00
2016-11-30T06:00:50.593Z,0.00
2016-11-30T06:01:50.812Z,0.00
2016-11-30T06:02:51.333Z,0.00
2016-11-30T06:03:51.865Z,0.00
2016-11-30T06:04:52.365Z,0.00
2016-11-30T06:05:52.905Z,0.00
2016-11-30T06:06:53.541Z,0.00
2016-11-30T06:07:53.937Z,0.00
2016-11-30T06:08:54.422Z,0.00
2016-11-30T06:09:54.957Z,0.00
2016-11-30T06:10:55.498Z,0.00
2016-11-30T06:11:55.982Z,0.00
2016-11-30T06:12:56.505Z,0.00
2016-11-30T06:13:57.036Z,0.00
2016-11-30T06:14:57.565Z,0.00
2016-11-30T06:15:58.075Z,0.00
2016-11-30T06:16:58.707Z,0.00
2016-11-30T06:17:59.068Z,0.00
2016-11-30T06:18:59.594Z,0.00
2016-11-30T06:20:00.245Z,0.00
2016-11-30T06:21:00.628Z,0.00
2016-11-30T06:22:01.133Z,0.00
2016-11-30T06:23:01.652Z,0.00
2016-11-30T06:24:02.169Z,0.00
2016-11-30T06:25:02.884Z,0.00
2016-11-30T06:26:03.333Z,0.00
2016-11-30T06:27:03.701Z,0.00
2016-11-30T06:28:04.222Z,0.00
2016-11-30T06:29:04.745Z,0.00
2016-11-30T06:30:05.251Z,0.00
2016-11-30T06:31:05.921Z,0.00
2016-11-30T06:32:06.444Z,0.00
2016-11-30T06:33:06.846Z,0.00
2016-11-30T06:34:07.349Z,0.00
2016-11-30T06:35:07.867Z,0.00
2016-11-30T06:36:08.395Z,0.00
2016-11-30T06:37:08.954Z,0.00
2016-11-30T06:38:09.591Z,0.00
2016-11-30T06:39:10.003Z,0.00
2016-11-30T06:40:10.495Z,0.00
2016-11-30T06:41:11.171Z,0.00
2016-11-30T06:42:11.543Z,0.00
2016-11-30T06:43:12.094Z,0.00
2016-11-30T06:44:12.734Z,0.00
2016-11-30T06:45:13.146Z,0.00
2016-11-30T06:46:13.639Z,0.00
2016-11-30T06:47:14.197Z,0.00
2016-11-30T06:48:14.693Z,0.00
2016-11-30T06:49:15.214Z,0.00
2016-11-30T06:50:15.891Z,0.00
2016-11-30T06:51:16.294Z,0.00
2016-11-30T06:52:16.942Z,0.00
2016-11-30T06:53:17.348Z,0.00
2016-11-30T06:54:17.844Z,0.00
2016-11-30T06:55:18.366Z,0.00
2016-11-30T06:56:19.040Z,0.00
2016-11-30T06:57:19.441Z,0.00
2016-11-30T06:58:19.942Z,0.00
2016-11-30T06:59:20.468Z,0.00
2016-11-30T07:00:20.990Z,0.00
2016-11-30T07:01:21.543Z,0.00
2016-11-30T07:02:22.042Z,0.00
2016-11-30T07:03:22.601Z,0.00
2016-11-30T07:04:23.090Z,0.00
2016-11-30T07:05:23.616Z,0.00
2016-11-30T07:06:24.142Z,0.00
2016-11-30T07:07:24.667Z,0.00
2016-11-30T07:08:25.190Z,0.00
2016-11-30T07:09:25.716Z,0.00
2016-11-30T07:10:26.237Z,0.00
2016-11-30T07:11:26.760Z,0.00
2016-11-30T07:12:27.435Z,0.00
2016-11-30T07:13:27.846Z,0.00
2016-11-30T07:14:28.484Z,0.00
2016-11-30T07:15:28.888Z,0.00
2016-11-30T07:16:29.385Z,0.00
2016-11-30T07:17:30.057Z,0.00
2016-11-30T07:18:30.579Z,0.00
2016-11-30T07:19:30.989Z,0.00
2016-11-30T07:20:31.480Z,0.00
2016-11-30T07:21:32.305Z,0.00
2016-11-30T07:22:32.535Z,0.00
2016-11-30T07:23:33.093Z,1.00
2016-11-30T07:24:33.750Z,1.00
2016-11-30T07:25:34.105Z,1.00
2016-11-30T07:26:34.637Z,1.00
2016-11-30T07:27:35.163Z,1.00
2016-11-30T07:28:35.695Z,1.00
2016-11-30T07:29:36.225Z,1.00
2016-11-30T07:30:36.752Z,1.00
2016-11-30T07:31:37.275Z,1.00
2016-11-30T07:32:37.804Z,1.00
2016-11-30T07:33:38.333Z,1.00
2016-11-30T07:34:39.004Z,2.00
2016-11-30T07:35:39.405Z,2.00
2016-11-30T07:36:39.915Z,2.00
2016-11-30T07:37:40.580Z,2.00
2016-11-30T07:38:40.958Z,2.00
2016-11-30T07:39:41.481Z,2.00
2016-11-30T07:40:42.007Z,2.00
2016-11-30T07:41:42.556Z,2.00
2016-11-30T07:42:43.054Z,2.00
2016-11-30T07:43:43.575Z,2.00
2016-11-30T07:44:44.104Z,2.00
2016-11-30T07:45:44.662Z,3.00
2016-11-30T07:46:45.152Z,3.00
2016-11-30T07:47:45.828Z,3.00
2016-11-30T07:48:46.348Z,3.00
2016-11-30T07:49:46.876Z,3.00
2016-11-30T07:50:47.252Z,3.00
2016-11-30T07:51:47.802Z,3.00
2016-11-30T07:52:48.300Z,3.00
2016-11-30T07:53:48.824Z,3.00
2016-11-30T07:54:49.351Z,3.00
2016-11-30T07:55:49.911Z,3.00
2016-11-30T07:56:50.411Z,4.00
2016-11-30T07:57:51.077Z,4.00
2016-11-30T07:58:51.596Z,4.00
2016-11-30T07:59:51.972Z,4.00
2016-11-30T08:00:52.495Z,4.00
2016-11-30T08:01:53.319Z,4.00
2016-11-30T08:02:53.546Z,4.00
2016-11-30T08:03:54.104Z,4.00
2016-11-30T08:04:54.604Z,4.00
2016-11-30T08:05:55.146Z,4.00
2016-11-30T08:06:55.651Z,5.00
2016-11-30T08:07:56.172Z,5.00
2016-11-30T08:08:56.700Z,5.00
2016-11-30T08:09:57.258Z,5.00
2016-11-30T08:10:57.759Z,5.00
2016-11-30T08:11:58.323Z,5.00
2016-11-30T08:12:58.806Z,5.00
2016-11-30T08:13:59.340Z,5.00
2016-11-30T08:14:59.852Z,5.00
2016-11-30T08:16:00.527Z,5.00
2016-11-30T08:17:00.903Z,6.00
2016-11-30T08:18:01.429Z,6.00
2016-11-30T08:19:02.101Z,6.00
2016-11-30T08:20:02.627Z,6.00
2016-11-30T08:21:03.149Z,6.00
2016-11-30T08:22:03.677Z,6.00
2016-11-30T08:23:04.050Z,7.00
2016-11-30T08:24:04.571Z,7.00
2016-11-30T08:25:05.098Z,7.00
2016-11-30T08:26:05.771Z,8.00
2016-11-30T08:27:06.149Z,8.00
2016-11-30T08:28:06.825Z,8.00
2016-11-30T08:29:07.348Z,8.00
2016-11-30T08:30:07.747Z,9.00
2016-11-30T08:31:08.249Z,9.00
2016-11-30T08:32:08.923Z,9.00
2016-11-30T08:33:09.300Z,9.00
2016-11-30T08:34:09.821Z,10.00
2016-11-30T08:35:10.347Z,10.00
2016-11-30T08:36:10.872Z,10.00
2016-11-30T08:37:11.542Z,12.00
2016-11-30T08:38:12.069Z,12.00
2016-11-30T08:39:12.593Z,12.00
2016-11-30T08:40:12.998Z,14.00
2016-11-30T08:41:13.495Z,15.00
2016-11-30T08:42:14.166Z,15.00
2016-11-30T08:43:14.544Z,15.00
2016-11-30T08:44:15.067Z,15.00
2016-11-30T08:45:15.596Z,14.00
2016-11-30T08:46:16.271Z,14.00
2016-11-30T08:47:16.791Z,17.00
2016-11-30T08:48:17.171Z,19.00
2016-11-30T08:49:17.702Z,20.00
2016-11-30T08:50:18.245Z,20.00
2016-11-30T08:51:18.788Z,20.00
2016-11-30T08:52:19.439Z,20.00
2016-11-30T08:53:19.818Z,20.00
2016-11-30T08:54:20.338Z,19.00
2016-11-30T08:55:20.865Z,18.00
2016-11-30T08:56:21.390Z,19.00
2016-11-30T08:57:21.915Z,19.00
2016-11-30T08:58:22.589Z,17.00
2016-11-30T08:59:22.966Z,16.00
2016-11-30T09:00:23.522Z,16.00
2016-11-30T09:01:24.015Z,17.00
2016-11-30T09:02:24.537Z,17.00
2016-11-30T09:03:25.065Z,19.00
2016-11-30T09:04:25.623Z,21.00
2016-11-30T09:05:26.129Z,21.00
2016-11-30T09:06:26.638Z,21.00
2016-11-30T09:07:27.164Z,21.00
2016-11-30T09:08:27.713Z,21.00
2016-11-30T09:09:28.212Z,22.00
2016-11-30T09:10:28.732Z,23.00
2016-11-30T09:11:29.261Z,22.00
2016-11-30T09:12:29.786Z,22.00
2016-11-30T09:13:30.455Z,22.00
2016-11-30T09:14:30.860Z,21.00
2016-11-30T09:15:31.384Z,22.00
2016-11-30T09:16:31.906Z,22.00
2016-11-30T09:17:32.554Z,19.00
2016-11-30T09:18:32.926Z,18.00
2016-11-30T09:19:33.458Z,20.00
2016-11-30T09:20:33.998Z,20.00
2016-11-30T09:21:34.512Z,20.00
2016-11-30T09:22:35.177Z,20.00
2016-11-30T09:23:35.698Z,20.00
2016-11-30T09:24:36.103Z,20.00
2016-11-30T09:25:36.601Z,20.00
2016-11-30T09:26:37.154Z,21.00
2016-11-30T09:27:37.655Z,21.00
2016-11-30T09:28:38.330Z,19.00
2016-11-30T09:29:38.734Z,19.00
2016-11-30T09:30:39.261Z,20.00
2016-11-30T09:31:39.908Z,21.00
2016-11-30T09:32:40.438Z,20.00
2016-11-30T09:33:40.958Z,23.00
2016-11-30T09:34:41.339Z,24.00
2016-11-30T09:35:42.008Z,24.00
2016-11-30T09:36:42.383Z,24.00
2016-11-30T09:37:43.058Z,24.00
2016-11-30T09:38:43.585Z,26.00
2016-11-30T09:39:43.957Z,28.00
2016-11-30T09:40:44.483Z,28.00
2016-11-30T09:41:45.154Z,28.00
2016-11-30T09:42:45.683Z,27.00
2016-11-30T09:43:46.060Z,25.00
2016-11-30T09:44:46.608Z,24.00
2016-11-30T09:45:47.254Z,26.00
2016-11-30T09:46:47.629Z,27.00
2016-11-30T09:47:48.160Z,27.00
2016-11-30T09:48:48.690Z,27.00
2016-11-30T09:49:49.358Z,27.00
2016-11-30T09:50:49.882Z,26.00
2016-11-30T09:51:50.405Z,26.00
2016-11-30T09:52:50.778Z,25.00
2016-11-30T09:53:51.307Z,24.00
2016-11-30T09:54:51.829Z,25.00
2016-11-30T09:55:52.500Z,25.00
2016-11-30T09:56:52.875Z,25.00
2016-11-30T09:57:53.398Z,26.00
2016-11-30T09:58:53.925Z,27.00
2016-11-30T09:59:54.593Z,27.00
2016-11-30T10:00:54.966Z,27.00
2016-11-30T10:01:55.709Z,26.00
2016-11-30T10:02:56.174Z,27.00
2016-11-30T10:03:56.547Z,27.00
2016-11-30T10:04:57.103Z,27.00
2016-11-30T10:05:57.741Z,27.00
2016-11-30T10:06:58.147Z,27.00
2016-11-30T10:07:58.791Z,28.00
2016-11-30T10:08:59.175Z,28.00
2016-11-30T10:09:59.734Z,27.00
2016-11-30T10:11:00.231Z,25.00
2016-11-30T10:12:00.906Z,25.00
2016-11-30T10:13:01.308Z,27.00
2016-11-30T10:14:01.836Z,27.00
2016-11-30T10:15:02.482Z,27.00
2016-11-30T10:16:02.858Z,26.00
2016-11-30T10:17:03.420Z,26.00
2016-11-30T10:18:04.059Z,27.00
2016-11-30T10:19:04.586Z,28.00
2016-11-30T10:20:04.960Z,28.00
2016-11-30T10:21:05.508Z,26.00
2016-11-30T10:22:06.157Z,27.00
2016-11-30T10:23:06.535Z,26.00
2016-11-30T10:24:07.058Z,23.00
2016-11-30T10:25:07.585Z,24.00
2016-11-30T10:26:08.109Z,25.00
2016-11-30T10:27:08.668Z,26.00
2016-11-30T10:28:09.158Z,26.00
2016-11-30T10:29:09.685Z,25.00
2016-11-30T10:30:10.209Z,26.00
2016-11-30T10:31:10.738Z,27.00
2016-11-30T10:32:11.286Z,28.00
2016-11-30T10:33:11.791Z,29.00
2016-11-30T10:34:12.303Z,30.00
2016-11-30T10:35:12.847Z,30.00
2016-11-30T10:36:13.501Z,28.00
2016-11-30T10:37:13.911Z,28.00
2016-11-30T10:38:14.549Z,27.00
2016-11-30T10:39:14.927Z,28.00
2016-11-30T10:40:15.449Z,28.00
2016-11-30T10:41:16.123Z,27.00
2016-11-30T10:42:16.655Z,27.00
2016-11-30T10:43:17.181Z,27.00
2016-11-30T10:44:17.693Z,28.00
2016-11-30T10:45:18.070Z,27.00
2016-11-30T10:46:18.744Z,26.00
2016-11-30T10:47:19.270Z,26.00
2016-11-30T10:48:19.793Z,28.00
2016-11-30T10:49:20.172Z,28.00
2016-11-30T10:50:20.702Z,27.00
2016-11-30T10:51:21.378Z,27.00
2016-11-30T10:52:21.756Z,26.00
2016-11-30T10:53:22.280Z,27.00
2016-11-30T10:54:22.807Z,27.00
2016-11-30T10:55:23.326Z,28.00
2016-11-30T10:56:23.999Z,29.00
2016-11-30T10:57:24.378Z,29.00
2016-11-30T10:58:25.679Z,29.00
2016-11-30T10:59:25.452Z,28.00
2016-11-30T11:00:25.948Z,25.00
2016-11-30T11:01:26.473Z,26.00
2016-11-30T11:02:27.000Z,25.00
2016-11-30T11:03:27.676Z,23.00
2016-11-30T11:04:28.195Z,24.00
2016-11-30T11:05:28.575Z,24.00
2016-11-30T11:06:29.098Z,23.00
2016-11-30T11:07:29.658Z,22.00
2016-11-30T11:08:30.150Z,18.00
2016-11-30T11:09:30.676Z,17.00
2016-11-30T11:10:31.196Z,17.00
2016-11-30T11:11:31.723Z,16.00
2016-11-30T11:12:32.244Z,16.00
2016-11-30T11:13:32.918Z,16.00
2016-11-30T11:14:33.292Z,17.00
2016-11-30T11:15:33.966Z,18.00
2016-11-30T11:16:34.341Z,21.00
2016-11-30T11:17:34.893Z,21.00
2016-11-30T11:18:35.539Z,20.00
2016-11-30T11:19:36.068Z,18.00
2016-11-30T11:20:36.450Z,17.00
2016-11-30T11:21:36.988Z,18.00
2016-11-30T11:22:37.497Z,18.00
2016-11-30T11:23:38.015Z,18.00
2016-11-30T11:24:38.543Z,21.00
2016-11-30T11:25:39.065Z,21.00
2016-11-30T11:26:39.593Z,21.00
2016-11-30T11:27:40.149Z,28.00
2016-11-30T11:28:40.795Z,30.00
2016-11-30T11:29:41.183Z,23.00
2016-11-30T11:30:41.853Z,25.00
2016-11-30T11:31:42.231Z,26.00
2016-11-30T11:32:42.760Z,26.00
2016-11-30T11:33:43.286Z,23.00
2016-11-30T11:34:43.962Z,23.00
2016-11-30T11:35:44.364Z,23.00
2016-11-30T11:36:44.865Z,22.00
2016-11-30T11:37:45.540Z,21.00
2016-11-30T11:38:45.917Z,25.00
2016-11-30T11:39:46.438Z,28.00
2016-11-30T11:40:46.964Z,26.00
2016-11-30T11:41:47.512Z,25.00
2016-11-30T11:42:48.161Z,25.00
2016-11-30T11:43:48.562Z,25.00
2016-11-30T11:44:49.066Z,23.00
2016-11-30T11:45:49.591Z,21.00
2016-11-30T11:46:50.122Z,21.00
2016-11-30T11:47:50.639Z,24.00
2016-11-30T11:48:51.167Z,22.00
2016-11-30T11:49:51.692Z,19.00
2016-11-30T11:50:52.217Z,16.00
2016-11-30T11:51:52.744Z,16.00
2016-11-30T11:52:53.272Z,15.00
2016-11-30T11:53:53.827Z,19.00
2016-11-30T11:54:54.320Z,18.00
2016-11-30T11:55:54.846Z,14.00
2016-11-30T11:56:55.374Z,13.00
2016-11-30T11:57:56.056Z,13.00
2016-11-30T11:58:56.572Z,12.00
2016-11-30T11:59:57.101Z,10.00
2016-11-30T12:00:57.624Z,10.00
2016-11-30T12:01:58.303Z,9.00
2016-11-30T12:02:58.681Z,9.00
2016-11-30T12:03:59.056Z,8.00
2016-11-30T12:04:59.588Z,8.00
2016-11-30T12:06:00.140Z,8.00
2016-11-30T12:07:00.635Z,9.00
2016-11-30T12:08:01.188Z,9.00
2016-11-30T12:09:01.695Z,9.00
2016-11-30T12:10:02.233Z,9.00
2016-11-30T12:11:02.753Z,8.00
2016-11-30T12:12:03.284Z,7.00
2016-11-30T12:13:03.809Z,7.00
2016-11-30T12:14:04.378Z,7.00
2016-11-30T12:15:04.882Z,6.00
2016-11-30T12:16:05.418Z,6.00
2016-11-30T12:17:05.927Z,5.00
2016-11-30T12:18:06.448Z,5.00
2016-11-30T12:19:06.977Z,4.00
2016-11-30T12:20:07.503Z,4.00
2016-11-30T12:21:08.030Z,4.00
2016-11-30T12:22:08.556Z,5.00
2016-11-30T12:23:09.085Z,5.00
2016-11-30T12:24:09.760Z,4.00
2016-11-30T12:25:10.284Z,4.00
2016-11-30T12:26:10.676Z,4.00
2016-11-30T12:27:11.193Z,4.00
2016-11-30T12:28:11.755Z,4.00
2016-11-30T12:29:12.242Z,4.00
2016-11-30T12:30:12.805Z,4.00
2016-11-30T12:31:13.321Z,5.00
2016-11-30T12:32:13.846Z,5.00
2016-11-30T12:33:14.492Z,5.00
2016-11-30T12:34:14.906Z,5.00
2016-11-30T12:35:15.548Z,5.00
2016-11-30T12:36:16.075Z,5.00
2016-11-30T12:37:16.482Z,5.00
2016-11-30T12:38:17.133Z,5.00
2016-11-30T12:39:17.658Z,5.00
2016-11-30T12:40:18.044Z,6.00
2016-11-30T12:41:18.717Z,6.00
2016-11-30T12:42:19.243Z,6.00
2016-11-30T12:43:19.622Z,5.00
2016-11-30T12:44:20.144Z,4.00
2016-11-30T12:45:20.677Z,4.00
2016-11-30T12:46:21.354Z,4.00
2016-11-30T12:47:21.877Z,4.00
2016-11-30T12:48:22.287Z,4.00
2016-11-30T12:49:22.939Z,4.00
2016-11-30T12:50:23.321Z,5.00
2016-11-30T12:51:23.853Z,5.00
2016-11-30T12:52:24.379Z,5.00
2016-11-30T12:53:25.056Z,5.00
2016-11-30T12:54:25.467Z,5.00
2016-11-30T12:55:25.965Z,5.00
2016-11-30T12:56:26.519Z,5.00
2016-11-30T12:57:27.013Z,5.00
2016-11-30T12:58:27.541Z,4.00
2016-11-30T12:59:28.068Z,4.00
2016-11-30T13:00:28.592Z,4.00
2016-11-30T13:01:29.121Z,4.00
2016-11-30T13:02:29.645Z,4.00
2016-11-30T13:03:30.172Z,4.00
2016-11-30T13:04:30.733Z,4.00
2016-11-30T13:05:31.232Z,4.00
2016-11-30T13:06:31.907Z,3.00
2016-11-30T13:07:32.430Z,3.00
2016-11-30T13:08:32.811Z,3.00
2016-11-30T13:09:33.484Z,3.00
2016-11-30T13:10:33.894Z,3.00
2016-11-30T13:11:34.396Z,3.00
2016-11-30T13:12:34.949Z,3.00
2016-11-30T13:13:35.450Z,3.00
2016-11-30T13:14:35.999Z,3.00
2016-11-30T13:15:36.498Z,3.00
2016-11-30T13:16:37.946Z,3.00
2016-11-30T13:17:37.696Z,3.00
2016-11-30T13:18:38.071Z,2.00